createdAt,value
2023-04-21T00:00:55.136Z,63.90
2023-04-21T00:03:28.015Z,64.00
2023-04-21T00:05:58.826Z,64.10
2023-04-21T00:08:28.847Z,63.90
2023-04-21T00:10:58.233Z,63.90
2023-04-21T00:13:25.676Z,64.10
2023-04-21T00:15:55.253Z,63.90
2023-04-21T00:18:25.320Z,63.90
2023-04-21T00:20:55.279Z,64.10
2023-04-21T00:23:22.704Z,64.00
2023-04-21T00:25:50.091Z,64.20
2023-04-21T00:28:17.360Z,64.10
2023-04-21T00:30:47.183Z,64.10
2023-04-21T00:33:14.499Z,64.10
2023-04-21T00:35:41.742Z,64.10
2023-04-21T00:38:09.298Z,64.20
2023-04-21T00:40:36.540Z,64.20
2023-04-21T00:43:07.456Z,64.20
2023-04-21T00:45:37.380Z,64.10
2023-04-21T00:48:04.888Z,64.30
2023-04-21T00:50:33.169Z,64.20
2023-04-21T00:53:00.732Z,64.30
2023-04-21T00:55:29.040Z,64.40
2023-04-21T00:57:56.721Z,64.40
2023-04-21T01:00:24.483Z,64.40
2023-04-21T01:02:52.074Z,64.50
2023-04-21T01:05:19.500Z,64.40
2023-04-21T01:07:46.943Z,64.30
2023-04-21T01:10:14.507Z,64.40
2023-04-21T01:12:49.145Z,64.50
2023-04-21T01:15:17.964Z,64.60
2023-04-21T01:17:47.682Z,64.80
2023-04-21T01:20:18.395Z,64.70
2023-04-21T01:22:45.788Z,64.80
2023-04-21T01:25:17.584Z,64.80
2023-04-21T01:27:44.929Z,64.80
2023-04-21T01:30:12.323Z,64.80
2023-04-21T01:32:40.097Z,64.80
2023-04-21T01:35:07.784Z,65.00
2023-04-21T01:37:35.484Z,64.80
2023-04-21T01:40:09.146Z,64.80
2023-04-21T01:42:43.490Z,64.90
2023-04-21T01:45:11.595Z,64.80
2023-04-21T01:47:39.006Z,64.80
2023-04-21T01:50:07.538Z,65.00
2023-04-21T01:52:34.826Z,64.80
2023-04-21T01:55:04.948Z,64.80
2023-04-21T01:57:34.557Z,64.80
2023-04-21T02:00:02.391Z,65.00
2023-04-21T02:02:29.804Z,65.10
2023-04-21T02:04:59.481Z,65.00
2023-04-21T02:07:29.007Z,65.10
2023-04-21T02:09:56.533Z,65.30
2023-04-21T02:12:23.836Z,65.30
2023-04-21T02:14:51.113Z,65.20
2023-04-21T02:17:21.251Z,65.10
2023-04-21T02:19:48.607Z,65.20
2023-04-21T02:22:18.147Z,65.10
2023-04-21T02:24:45.466Z,65.10
2023-04-21T02:27:17.567Z,65.10
2023-04-21T02:29:44.813Z,65.10
2023-04-21T02:32:24.993Z,65.10
2023-04-21T02:34:53.326Z,65.10
2023-04-21T02:37:21.157Z,65.10
2023-04-21T02:39:48.537Z,65.10
2023-04-21T02:42:18.238Z,65.10
2023-04-21T02:44:50.233Z,65.10
2023-04-21T02:47:17.548Z,65.20
2023-04-21T02:49:45.075Z,65.10
2023-04-21T02:52:12.334Z,65.00
2023-04-21T02:54:39.672Z,65.10
2023-04-21T02:57:07.247Z,65.40
2023-04-21T02:59:36.905Z,65.40
2023-04-21T03:02:04.266Z,65.50
2023-04-21T03:04:34.261Z,65.50
2023-04-21T03:07:04.275Z,65.50
2023-04-21T03:09:31.642Z,65.50
2023-04-21T03:11:59.348Z,65.50
2023-04-21T03:14:26.914Z,65.50
2023-04-21T03:16:54.170Z,65.60
2023-04-21T03:19:21.786Z,65.50
2023-04-21T03:21:49.256Z,65.50
2023-04-21T03:24:19.663Z,65.30
2023-04-21T03:26:47.074Z,65.40
2023-04-21T03:29:14.637Z,65.40
2023-04-21T03:31:41.864Z,65.40
2023-04-21T03:34:09.203Z,65.40
2023-04-21T03:36:36.508Z,65.40
2023-04-21T03:39:13.158Z,65.40
2023-04-21T03:41:46.278Z,65.50
2023-04-21T03:44:13.829Z,65.40
2023-04-21T03:46:41.056Z,65.60
2023-04-21T03:49:08.414Z,65.40
2023-04-21T03:51:37.963Z,65.30
2023-04-21T03:54:05.388Z,65.40
2023-04-21T03:56:32.700Z,65.50
2023-04-21T03:58:59.997Z,65.40
2023-04-21T04:01:27.472Z,65.50
2023-04-21T04:03:55.293Z,65.50
2023-04-21T04:06:24.843Z,65.70
2023-04-21T04:08:52.166Z,65.50
2023-04-21T04:11:19.465Z,65.50
2023-04-21T04:13:49.078Z,65.50
2023-04-21T04:16:18.971Z,65.60
2023-04-21T04:18:46.288Z,65.70
2023-04-21T04:21:15.779Z,65.70
2023-04-21T04:23:44.376Z,65.70
2023-04-21T04:26:11.669Z,65.60
2023-04-21T04:28:38.917Z,65.60
2023-04-21T04:31:06.291Z,65.50
2023-04-21T04:33:36.201Z,65.40
2023-04-21T04:36:06.485Z,65.40
2023-04-21T04:38:35.588Z,65.50
2023-04-21T04:41:03.284Z,65.70
2023-04-21T04:43:33.574Z,65.70
2023-04-21T04:46:01.492Z,65.60
2023-04-21T04:48:31.465Z,65.60
2023-04-21T04:50:58.740Z,65.50
2023-04-21T04:53:28.494Z,65.40
2023-04-21T04:55:57.551Z,65.40
2023-04-21T04:58:24.937Z,65.30
2023-04-21T05:00:52.280Z,65.30
2023-04-21T05:03:19.736Z,65.30
2023-04-21T05:05:47.258Z,65.90
2023-04-21T05:08:17.833Z,65.30
2023-04-21T05:10:47.776Z,65.50
2023-04-21T05:13:17.667Z,65.30
2023-04-21T05:15:47.130Z,65.30
2023-04-21T05:18:14.462Z,65.40
2023-04-21T05:20:42.614Z,65.30
2023-04-21T05:23:12.069Z,65.50
2023-04-21T05:25:42.212Z,65.60
2023-04-21T05:28:09.600Z,65.60
2023-04-21T05:30:36.963Z,65.70
2023-04-21T05:33:04.346Z,65.70
2023-04-21T05:35:31.774Z,65.80
2023-04-21T05:38:01.560Z,65.80
2023-04-21T05:40:28.825Z,65.60
2023-04-21T05:42:56.049Z,65.70
2023-04-21T05:45:23.401Z,65.80
2023-04-21T05:47:51.147Z,66.00
2023-04-21T05:50:18.628Z,66.10
2023-04-21T05:52:48.376Z,66.20
2023-04-21T05:55:15.625Z,66.20
2023-04-21T05:57:42.939Z,66.30
2023-04-21T06:00:11.027Z,66.40
2023-04-21T06:02:38.558Z,66.30
2023-04-21T06:05:06.461Z,66.30
2023-04-21T06:07:37.129Z,66.30
2023-04-21T06:10:04.898Z,66.50
2023-04-21T06:12:32.209Z,66.80
2023-04-21T06:14:59.534Z,67.10
2023-04-21T06:17:29.306Z,67.00
2023-04-21T06:19:58.774Z,67.00
2023-04-21T06:22:27.296Z,66.40
2023-04-21T06:24:58.333Z,66.10
2023-04-21T06:27:25.974Z,65.40
2023-04-21T06:29:56.614Z,65.10
2023-04-21T06:32:26.147Z,64.60
2023-04-21T06:34:53.445Z,64.50
2023-04-21T06:37:20.682Z,63.90
2023-04-21T06:39:47.946Z,63.70
2023-04-21T06:42:15.268Z,63.30
2023-04-21T06:44:42.600Z,63.10
2023-04-21T06:47:09.927Z,63.00
2023-04-21T06:49:40.269Z,63.40
2023-04-21T06:52:07.510Z,62.50
2023-04-21T06:54:39.283Z,62.30
2023-04-21T06:57:06.748Z,61.90
2023-04-21T06:59:36.347Z,61.80
2023-04-21T07:02:03.688Z,61.90
2023-04-21T07:04:32.369Z,61.40
2023-04-21T07:07:02.421Z,61.70
2023-04-21T07:09:34.052Z,61.30
2023-04-21T07:12:03.027Z,61.30
2023-04-21T07:14:32.667Z,61.20
2023-04-21T07:17:02.254Z,61.00
2023-04-21T07:19:29.669Z,60.80
2023-04-21T07:21:57.122Z,60.90
2023-04-21T07:24:24.382Z,60.60
2023-04-21T07:26:51.621Z,60.40
2023-04-21T07:29:19.047Z,60.40
2023-04-21T07:31:48.658Z,60.20
2023-04-21T07:34:18.311Z,60.60
2023-04-21T07:36:45.642Z,60.30
2023-04-21T07:39:13.020Z,60.40
2023-04-21T07:41:40.432Z,60.20
2023-04-21T07:44:07.658Z,59.60
2023-04-21T07:46:35.303Z,59.80
2023-04-21T07:49:05.199Z,59.90
2023-04-21T07:51:32.734Z,59.70
2023-04-21T07:54:00.012Z,59.70
2023-04-21T07:56:27.424Z,59.50
2023-04-21T07:58:54.969Z,59.20
2023-04-21T08:01:23.733Z,58.70
2023-04-21T08:03:53.140Z,58.80
2023-04-21T08:06:21.342Z,58.60
2023-04-21T08:08:48.797Z,58.20
2023-04-21T08:11:16.171Z,58.60
2023-04-21T08:13:43.441Z,57.60
2023-04-21T08:16:10.799Z,57.80
2023-04-21T08:18:38.165Z,57.80
2023-04-21T08:21:05.589Z,57.60
2023-04-21T08:23:34.940Z,57.20
2023-04-21T08:26:05.580Z,57.70
2023-04-21T08:28:32.835Z,58.20
2023-04-21T08:31:02.096Z,57.50
2023-04-21T08:33:29.489Z,58.00
2023-04-21T08:36:05.536Z,57.10
2023-04-21T08:38:47.283Z,56.00
2023-04-21T08:41:23.862Z,56.30
2023-04-21T08:43:53.628Z,55.60
2023-04-21T08:46:23.824Z,55.10
2023-04-21T08:48:52.243Z,55.30
2023-04-21T08:51:28.141Z,54.90
2023-04-21T08:53:55.826Z,55.20
2023-04-21T08:56:25.945Z,54.60
2023-04-21T08:58:54.030Z,54.30
2023-04-21T09:01:21.644Z,54.80
2023-04-21T09:03:51.471Z,54.40
2023-04-21T09:06:21.668Z,55.30
2023-04-21T09:08:56.464Z,55.60
2023-04-21T09:11:23.960Z,55.50
2023-04-21T09:13:51.286Z,55.50
2023-04-21T09:16:23.075Z,54.50
2023-04-21T09:18:51.661Z,54.80
2023-04-21T09:21:20.459Z,54.60
2023-04-21T09:23:51.623Z,55.00
2023-04-21T09:26:22.665Z,55.50
2023-04-21T09:28:51.342Z,54.40
2023-04-21T09:31:29.312Z,53.70
2023-04-21T09:34:00.160Z,53.50
2023-04-21T09:36:32.165Z,54.20
2023-04-21T09:41:35.059Z,54.70
2023-04-21T09:44:05.210Z,54.80
2023-04-21T09:46:37.088Z,54.20
2023-04-21T09:49:06.198Z,55.10
2023-04-21T09:54:28.327Z,54.80
2023-04-21T09:56:58.933Z,55.00
2023-04-21T09:59:39.788Z,55.80
2023-04-21T10:02:09.821Z,54.60
2023-04-21T10:04:38.668Z,55.00
2023-04-21T10:07:07.135Z,55.50
2023-04-21T10:09:45.402Z,56.30
2023-04-21T10:12:13.969Z,55.10
2023-04-21T10:14:41.497Z,55.00
2023-04-21T10:17:10.613Z,54.70
2023-04-21T10:19:48.462Z,54.60
2023-04-21T10:22:27.872Z,53.90
2023-04-21T10:24:57.017Z,54.20
2023-04-21T10:27:43.262Z,53.90
2023-04-21T10:30:24.181Z,53.50
2023-04-21T10:33:03.490Z,52.60
2023-04-21T10:36:01.023Z,52.60
2023-04-21T10:38:56.615Z,53.40
2023-04-21T10:41:28.262Z,52.50
2023-04-21T10:43:59.581Z,52.70
2023-04-21T10:46:36.601Z,52.60
2023-04-21T10:49:12.829Z,53.50
2023-04-21T10:52:07.253Z,53.10
2023-04-21T10:54:46.436Z,53.40
2023-04-21T10:57:18.859Z,52.70
2023-04-21T10:59:47.571Z,51.90
2023-04-21T11:02:18.757Z,51.40
2023-04-21T11:04:50.839Z,51.10
2023-04-21T11:07:23.641Z,51.20
2023-04-21T11:10:04.967Z,50.00
2023-04-21T11:12:34.934Z,50.10
2023-04-21T11:15:07.492Z,50.50
2023-04-21T11:17:36.239Z,50.30
2023-04-21T11:20:04.717Z,51.40
2023-04-21T11:22:38.422Z,51.00
2023-04-21T11:25:06.300Z,48.90
2023-04-21T11:27:33.679Z,50.40
2023-04-21T11:30:04.176Z,49.80
2023-04-21T11:32:31.552Z,50.30
2023-04-21T11:34:58.987Z,50.50
2023-04-21T11:37:28.813Z,49.90
2023-04-21T11:40:01.803Z,49.40
2023-04-21T11:42:29.200Z,48.20
2023-04-21T11:44:57.530Z,48.30
2023-04-21T11:47:26.801Z,48.80
2023-04-21T11:49:56.258Z,48.90
2023-04-21T11:52:41.305Z,48.00
2023-04-21T11:55:16.275Z,47.30
2023-04-21T11:57:46.425Z,48.20
2023-04-21T12:00:16.765Z,48.00
2023-04-21T12:02:44.494Z,47.00
2023-04-21T12:05:15.369Z,46.80
2023-04-21T12:07:44.738Z,46.90
2023-04-21T12:10:17.955Z,48.40
2023-04-21T12:12:48.233Z,47.50
2023-04-21T12:15:23.182Z,47.20
2023-04-21T12:17:55.472Z,46.50
2023-04-21T12:20:24.581Z,45.70
2023-04-21T12:22:54.597Z,45.40
2023-04-21T12:25:22.051Z,46.30
2023-04-21T12:27:49.853Z,47.00
2023-04-21T12:30:17.349Z,47.30
2023-04-21T12:32:44.820Z,47.10
2023-04-21T12:35:12.113Z,46.90
2023-04-21T12:37:41.822Z,46.00
2023-04-21T12:40:11.892Z,47.00
2023-04-21T12:42:39.203Z,45.90
2023-04-21T12:45:07.214Z,45.30
2023-04-21T12:47:36.785Z,45.70
2023-04-21T12:50:06.884Z,45.40
2023-04-21T12:52:34.243Z,45.70
2023-04-21T12:55:04.681Z,45.20
2023-04-21T12:57:32.024Z,44.80
2023-04-21T13:00:02.512Z,45.30
2023-04-21T13:02:37.243Z,44.50
2023-04-21T13:05:07.446Z,44.40
2023-04-21T13:07:34.789Z,44.20
2023-04-21T13:10:06.637Z,43.80
2023-04-21T13:12:34.304Z,44.10
2023-04-21T13:15:01.648Z,44.10
2023-04-21T13:17:31.580Z,44.30
2023-04-21T13:19:58.856Z,45.00
2023-04-21T13:22:28.693Z,44.40
2023-04-21T13:24:58.146Z,44.80
2023-04-21T13:27:25.581Z,44.50
2023-04-21T13:29:55.616Z,44.70
2023-04-21T13:32:23.123Z,43.80
2023-04-21T13:34:53.891Z,42.90
2023-04-21T13:37:21.309Z,42.90
2023-04-21T13:39:51.087Z,42.60
2023-04-21T13:42:20.728Z,42.40
2023-04-21T13:44:50.259Z,42.20
2023-04-21T13:47:17.662Z,41.70
2023-04-21T13:49:45.915Z,41.90
2023-04-21T13:52:13.173Z,42.20
2023-04-21T13:54:42.718Z,42.40
2023-04-21T13:57:10.017Z,42.30
2023-04-21T13:59:39.909Z,42.10
2023-04-21T14:02:09.964Z,42.90
2023-04-21T14:04:37.841Z,43.10
2023-04-21T14:07:08.132Z,42.70
2023-04-21T14:09:37.854Z,42.50
2023-04-21T14:12:07.793Z,42.50
2023-04-21T14:14:38.666Z,43.40
2023-04-21T14:17:09.016Z,42.80
2023-04-21T14:19:36.861Z,42.70
2023-04-21T14:22:04.373Z,41.80
2023-04-21T14:24:32.371Z,42.20
2023-04-21T14:26:59.788Z,42.20
2023-04-21T14:29:29.959Z,42.20
2023-04-21T14:31:59.604Z,41.70
2023-04-21T14:34:27.066Z,42.80
2023-04-21T14:36:57.239Z,42.70
2023-04-21T14:39:24.583Z,43.00
2023-04-21T14:41:51.993Z,43.00
2023-04-21T14:44:19.396Z,43.00
2023-04-21T14:46:57.075Z,42.80
2023-04-21T14:49:29.169Z,42.90
2023-04-21T14:51:58.955Z,42.20
2023-04-21T14:54:28.475Z,42.00
2023-04-21T14:57:14.876Z,42.50
2023-04-21T14:59:47.030Z,42.10
2023-04-21T15:02:14.675Z,42.50
2023-04-21T15:04:44.739Z,42.90
2023-04-21T15:07:12.572Z,43.10
2023-04-21T15:09:39.924Z,43.00
2023-04-21T15:12:07.609Z,42.70
2023-04-21T15:14:34.994Z,42.70
2023-04-21T15:17:02.285Z,42.80
2023-04-21T15:19:32.120Z,42.70
2023-04-21T15:21:59.582Z,43.20
2023-04-21T15:24:26.856Z,43.80
2023-04-21T15:26:57.254Z,43.80
2023-04-21T15:29:24.598Z,43.70
2023-04-21T15:31:51.962Z,43.50
2023-04-21T15:34:19.262Z,43.60
2023-04-21T15:36:48.760Z,42.90
2023-04-21T15:39:16.200Z,42.90
2023-04-21T15:41:43.512Z,42.80
2023-04-21T15:44:11.108Z,42.90
2023-04-21T15:46:38.395Z,43.30
2023-04-21T15:49:05.816Z,43.20
2023-04-21T15:51:37.196Z,43.60
2023-04-21T15:54:04.545Z,42.40
2023-04-21T15:56:31.812Z,44.20
2023-04-21T15:59:03.806Z,42.70
2023-04-21T16:01:36.779Z,42.40
2023-04-21T16:04:05.581Z,42.60
2023-04-21T16:06:33.284Z,43.00
2023-04-21T16:09:03.456Z,43.00
2023-04-21T16:11:30.761Z,43.50
2023-04-21T16:14:00.438Z,43.00
2023-04-21T16:16:30.162Z,43.00
2023-04-21T16:18:57.476Z,42.90
2023-04-21T16:21:25.518Z,43.20
2023-04-21T16:23:55.240Z,43.20
2023-04-21T16:26:22.995Z,43.60
2023-04-21T16:28:54.163Z,43.90
2023-04-21T16:31:21.758Z,44.00
2023-04-21T16:33:52.691Z,43.90
2023-04-21T16:36:21.315Z,44.10
2023-04-21T16:38:48.706Z,44.40
2023-04-21T16:41:21.309Z,44.70
2023-04-21T16:43:48.775Z,45.10
2023-04-21T16:46:16.374Z,45.20
2023-04-21T16:48:43.873Z,45.10
2023-04-21T16:51:11.349Z,45.00
2023-04-21T16:53:42.075Z,45.20
2023-04-21T16:56:09.837Z,45.10
2023-04-21T16:58:39.632Z,45.40
2023-04-21T17:01:07.646Z,44.70
2023-04-21T17:03:35.406Z,45.00
2023-04-21T17:06:04.939Z,45.10
2023-04-21T17:08:34.480Z,45.40
2023-04-21T17:11:03.983Z,45.10
2023-04-21T17:13:35.467Z,45.20
2023-04-21T17:16:02.784Z,45.10
2023-04-21T17:18:30.570Z,46.00
2023-04-21T17:20:57.885Z,45.30
2023-04-21T17:23:25.114Z,45.40
2023-04-21T17:25:52.388Z,45.50
2023-04-21T17:28:19.650Z,45.40
2023-04-21T17:30:46.893Z,45.50
2023-04-21T17:33:17.174Z,45.80
2023-04-21T17:35:59.943Z,45.70
2023-04-21T17:38:32.354Z,45.80
2023-04-21T17:40:59.941Z,45.70
2023-04-21T17:43:27.340Z,45.80
2023-04-21T17:45:54.629Z,45.80
2023-04-21T17:48:21.953Z,45.40
2023-04-21T17:50:49.396Z,45.90
2023-04-21T17:53:17.424Z,45.70
2023-04-21T17:55:44.942Z,45.50
2023-04-21T17:58:12.592Z,45.50
2023-04-21T18:00:40.088Z,45.30
2023-04-21T18:03:07.607Z,45.70
2023-04-21T18:05:35.629Z,45.70
2023-04-21T18:08:03.071Z,45.90
2023-04-21T18:10:30.560Z,45.80
2023-04-21T18:12:58.306Z,45.80
2023-04-21T18:15:28.033Z,45.40
2023-04-21T18:18:02.200Z,45.50
2023-04-21T18:20:32.155Z,45.50
2023-04-21T18:23:01.777Z,45.70
2023-04-21T18:25:41.408Z,45.50
2023-04-21T18:28:11.127Z,45.90
2023-04-21T18:30:42.245Z,45.70
2023-04-21T18:33:12.646Z,46.00
2023-04-21T18:35:41.269Z,45.90
2023-04-21T18:38:11.879Z,46.10
2023-04-21T18:40:40.849Z,45.80
2023-04-21T18:43:09.853Z,45.90
2023-04-21T18:45:38.797Z,45.90
2023-04-21T18:48:06.206Z,45.80
2023-04-21T18:50:35.255Z,46.00
2023-04-21T18:53:04.741Z,45.90
2023-04-21T18:55:33.494Z,46.20
2023-04-21T18:58:03.460Z,45.90
2023-04-21T19:00:32.195Z,46.00
2023-04-21T19:03:02.770Z,46.30
2023-04-21T19:05:31.739Z,45.90
2023-04-21T19:07:59.170Z,46.10
2023-04-21T19:10:29.807Z,46.40
2023-04-21T19:12:59.335Z,46.20
2023-04-21T19:15:26.654Z,46.20
2023-04-21T19:17:56.390Z,46.10
2023-04-21T19:20:23.716Z,45.80
2023-04-21T19:22:53.808Z,45.90
2023-04-21T19:25:23.479Z,46.10
2023-04-21T19:27:51.619Z,46.00
2023-04-21T19:30:19.114Z,46.20
2023-04-21T19:32:48.773Z,46.30
2023-04-21T19:35:20.919Z,46.00
2023-04-21T19:37:50.675Z,46.10
2023-04-21T19:40:18.844Z,45.90
2023-04-21T19:42:46.194Z,46.00
2023-04-21T19:45:13.599Z,46.20
2023-04-21T19:47:40.906Z,46.10
2023-04-21T19:50:09.041Z,46.10
2023-04-21T19:52:36.318Z,46.40
2023-04-21T19:55:04.753Z,46.30
2023-04-21T19:57:32.022Z,46.50
2023-04-21T20:00:01.701Z,46.50
2023-04-21T20:02:29.132Z,46.60
2023-04-21T20:04:56.674Z,46.40
2023-04-21T20:07:24.925Z,46.60
2023-04-21T20:09:54.562Z,46.70
2023-04-21T20:12:24.619Z,46.80
2023-04-21T20:14:53.715Z,46.90
2023-04-21T20:17:21.096Z,46.60
2023-04-21T20:19:48.993Z,46.80
2023-04-21T20:22:16.367Z,46.80
2023-04-21T20:24:44.022Z,46.50
2023-04-21T20:27:11.420Z,46.60
2023-04-21T20:29:39.053Z,46.60
2023-04-21T20:32:06.773Z,46.80
2023-04-21T20:34:36.489Z,46.90
2023-04-21T20:37:05.262Z,46.60
2023-04-21T20:39:32.747Z,46.70
2023-04-21T20:42:12.563Z,47.10
2023-04-21T20:44:42.507Z,47.00
2023-04-21T20:47:11.615Z,47.00
2023-04-21T20:49:42.747Z,47.00
2023-04-21T20:52:10.501Z,47.00
2023-04-21T20:54:38.295Z,47.30
2023-04-21T20:57:10.662Z,47.00
2023-04-21T20:59:40.784Z,46.80
2023-04-21T21:02:08.527Z,47.10
2023-04-21T21:04:37.997Z,47.00
2023-04-21T21:07:07.732Z,47.10
2023-04-21T21:09:35.523Z,46.90
2023-04-21T21:12:02.912Z,46.90
2023-04-21T21:14:30.161Z,46.90
2023-04-21T21:16:57.643Z,47.30
2023-04-21T21:19:25.063Z,47.50
2023-04-21T21:21:52.320Z,47.70
2023-04-21T21:24:22.050Z,47.70
2023-04-21T21:26:49.330Z,47.60
2023-04-21T21:29:21.587Z,47.50
2023-04-21T21:31:51.090Z,47.50
2023-04-21T21:34:18.430Z,47.90
2023-04-21T21:36:45.882Z,48.10
2023-04-21T21:39:13.189Z,48.10
2023-04-21T21:41:40.397Z,48.10
2023-04-21T21:44:07.929Z,48.30
2023-04-21T21:46:37.711Z,48.70
2023-04-21T21:49:07.810Z,48.70
2023-04-21T21:51:35.112Z,48.30
2023-04-21T21:54:06.501Z,48.20
2023-04-21T21:56:36.709Z,48.40
2023-04-21T21:59:08.968Z,48.80
2023-04-21T22:01:36.294Z,48.90
2023-04-21T22:04:03.794Z,48.50
2023-04-21T22:06:32.634Z,48.30
2023-04-21T22:09:04.997Z,48.80
2023-04-21T22:11:32.524Z,49.00
2023-04-21T22:14:10.993Z,48.90
2023-04-21T22:16:46.216Z,49.10
2023-04-21T22:19:13.559Z,49.00
2023-04-21T22:21:40.903Z,48.90
2023-04-21T22:24:08.359Z,49.00
2023-04-21T22:26:36.376Z,49.30
2023-04-21T22:29:06.225Z,49.30
2023-04-21T22:31:36.747Z,49.20
2023-04-21T22:34:06.855Z,49.90
2023-04-21T22:36:34.226Z,49.50
2023-04-21T22:39:06.298Z,49.40
2023-04-21T22:41:33.510Z,49.50
2023-04-21T22:44:00.850Z,49.60
2023-04-21T22:46:32.044Z,49.60
2023-04-21T22:49:03.255Z,49.90
2023-04-21T22:51:32.228Z,49.50
2023-04-21T22:54:02.989Z,50.00
2023-04-21T22:56:31.218Z,50.30
2023-04-21T22:58:58.563Z,50.40
2023-04-21T23:01:25.881Z,50.10
2023-04-21T23:03:57.850Z,50.40
2023-04-21T23:06:28.378Z,50.50
2023-04-21T23:08:55.683Z,50.20
2023-04-21T23:11:22.940Z,50.30
2023-04-21T23:13:53.340Z,50.60
2023-04-21T23:16:26.221Z,50.60
2023-04-21T23:18:55.665Z,50.80
2023-04-21T23:21:22.974Z,50.80
2023-04-21T23:23:52.873Z,51.10
2023-04-21T23:26:20.298Z,51.20
2023-04-21T23:28:47.601Z,51.40
2023-04-21T23:31:14.915Z,51.30
2023-04-21T23:33:42.175Z,51.70
2023-04-21T23:36:09.423Z,51.40
2023-04-21T23:38:38.859Z,51.80
2023-04-21T23:41:06.282Z,51.30
2023-04-21T23:43:34.627Z,51.60
2023-04-21T23:46:02.026Z,51.90
2023-04-21T23:48:29.301Z,52.00
2023-04-21T23:50:56.677Z,51.80
2023-04-21T23:53:23.959Z,52.00
2023-04-21T23:55:51.414Z,52.20
2023-04-21T23:58:18.775Z,52.50
